sensor_id;sensor_type;location;lat;lon;timestamp;P1;durP1;ratioP1;P2;durP2;ratioP2
6105;SDS011;3083;51.508;7.966;2023-03-26T00:01:24;5.93;;;1.53;;
6105;SDS011;3083;51.508;7.966;2023-03-26T00:03:54;3.87;;;1.33;;
6105;SDS011;3083;51.508;7.966;2023-03-26T00:06:22;3.77;;;1.40;;
6105;SDS011;3083;51.508;7.966;2023-03-26T00:08:51;2.90;;;1.30;;
6105;SDS011;3083;51.508;7.966;2023-03-26T00:11:19;3.43;;;1.50;;
6105;SDS011;3083;51.508;7.966;2023-03-26T00:13:47;4.10;;;1.10;;
6105;SDS011;3083;51.508;7.966;2023-03-26T00:16:16;3.93;;;1.43;;
6105;SDS011;3083;51.508;7.966;2023-03-26T00:18:44;3.30;;;1.90;;
6105;SDS011;3083;51.508;7.966;2023-03-26T00:21:13;3.60;;;1.50;;
6105;SDS011;3083;51.508;7.966;2023-03-26T00:23:41;4.50;;;1.33;;
6105;SDS011;3083;51.508;7.966;2023-03-26T00:26:09;10.37;;;2.00;;
6105;SDS011;3083;51.508;7.966;2023-03-26T00:28:37;3.70;;;1.60;;
6105;SDS011;3083;51.508;7.966;2023-03-26T00:31:06;4.27;;;2.00;;
6105;SDS011;3083;51.508;7.966;2023-03-26T00:33:37;4.53;;;2.47;;
6105;SDS011;3083;51.508;7.966;2023-03-26T00:36:05;10.93;;;2.63;;
6105;SDS011;3083;51.508;7.966;2023-03-26T00:38:35;6.67;;;2.50;;
6105;SDS011;3083;51.508;7.966;2023-03-26T00:41:03;11.10;;;3.17;;
6105;SDS011;3083;51.508;7.966;2023-03-26T00:43:32;6.43;;;2.70;;
6105;SDS011;3083;51.508;7.966;2023-03-26T00:46:00;11.57;;;3.30;;
6105;SDS011;3083;51.508;7.966;2023-03-26T00:48:27;7.70;;;3.30;;
6105;SDS011;3083;51.508;7.966;2023-03-26T00:50:56;11.90;;;3.97;;
6105;SDS011;3083;51.508;7.966;2023-03-26T00:53:23;8.17;;;2.90;;
6105;SDS011;3083;51.508;7.966;2023-03-26T00:55:49;9.30;;;3.13;;
6105;SDS011;3083;51.508;7.966;2023-03-26T00:58:17;8.77;;;3.47;;
6105;SDS011;3083;51.508;7.966;2023-03-26T01:00:49;10.70;;;3.17;;
6105;SDS011;3083;51.508;7.966;2023-03-26T01:03:21;10.03;;;3.17;;
6105;SDS011;3083;51.508;7.966;2023-03-26T01:05:49;10.53;;;3.50;;
6105;SDS011;3083;51.508;7.966;2023-03-26T01:08:25;8.13;;;3.67;;
6105;SDS011;3083;51.508;7.966;2023-03-26T01:10:56;16.47;;;3.30;;
6105;SDS011;3083;51.508;7.966;2023-03-26T01:13:30;13.20;;;3.80;;
6105;SDS011;3083;51.508;7.966;2023-03-26T01:15:59;13.07;;;3.33;;
6105;SDS011;3083;51.508;7.966;2023-03-26T01:18:28;12.37;;;3.43;;
6105;SDS011;3083;51.508;7.966;2023-03-26T01:20:58;19.87;;;4.00;;
6105;SDS011;3083;51.508;7.966;2023-03-26T01:23:36;19.63;;;5.20;;
6105;SDS011;3083;51.508;7.966;2023-03-26T01:26:09;13.17;;;4.00;;
6105;SDS011;3083;51.508;7.966;2023-03-26T01:28:45;22.03;;;4.10;;
6105;SDS011;3083;51.508;7.966;2023-03-26T01:31:13;11.30;;;3.97;;
6105;SDS011;3083;51.508;7.966;2023-03-26T01:33:51;11.70;;;3.97;;
6105;SDS011;3083;51.508;7.966;2023-03-26T01:36:24;16.90;;;4.60;;
6105;SDS011;3083;51.508;7.966;2023-03-26T01:38:58;13.40;;;4.07;;
6105;SDS011;3083;51.508;7.966;2023-03-26T01:41:32;12.07;;;3.90;;
6105;SDS011;3083;51.508;7.966;2023-03-26T01:44:09;19.40;;;4.50;;
6105;SDS011;3083;51.508;7.966;2023-03-26T01:46:45;11.70;;;4.20;;
6105;SDS011;3083;51.508;7.966;2023-03-26T01:49:13;26.33;;;4.80;;
6105;SDS011;3083;51.508;7.966;2023-03-26T01:51:41;14.17;;;3.83;;
6105;SDS011;3083;51.508;7.966;2023-03-26T01:54:09;22.60;;;4.03;;
6105;SDS011;3083;51.508;7.966;2023-03-26T01:56:41;14.30;;;4.30;;
6105;SDS011;3083;51.508;7.966;2023-03-26T01:59:21;19.50;;;4.60;;
6105;SDS011;3083;51.508;7.966;2023-03-26T02:01:59;25.83;;;4.23;;
6105;SDS011;3083;51.508;7.966;2023-03-26T02:04:33;19.20;;;3.67;;
6105;SDS011;3083;51.508;7.966;2023-03-26T02:07:07;15.80;;;4.50;;
6105;SDS011;3083;51.508;7.966;2023-03-26T02:09:43;26.23;;;4.00;;
6105;SDS011;3083;51.508;7.966;2023-03-26T02:12:15;12.40;;;3.67;;
6105;SDS011;3083;51.508;7.966;2023-03-26T02:14:43;16.47;;;4.23;;
6105;SDS011;3083;51.508;7.966;2023-03-26T02:17:11;14.13;;;4.13;;
6105;SDS011;3083;51.508;7.966;2023-03-26T02:19:38;22.93;;;4.20;;
6105;SDS011;3083;51.508;7.966;2023-03-26T02:22:06;17.30;;;4.83;;
6105;SDS011;3083;51.508;7.966;2023-03-26T02:24:35;19.83;;;5.20;;
6105;SDS011;3083;51.508;7.966;2023-03-26T02:27:03;17.70;;;4.80;;
6105;SDS011;3083;51.508;7.966;2023-03-26T02:29:33;16.83;;;5.23;;
6105;SDS011;3083;51.508;7.966;2023-03-26T02:32:02;18.20;;;4.10;;
6105;SDS011;3083;51.508;7.966;2023-03-26T02:34:30;24.80;;;5.60;;
6105;SDS011;3083;51.508;7.966;2023-03-26T02:36:57;15.63;;;4.43;;
6105;SDS011;3083;51.508;7.966;2023-03-26T02:39:24;19.63;;;4.20;;
6105;SDS011;3083;51.508;7.966;2023-03-26T02:41:51;18.10;;;5.67;;
6105;SDS011;3083;51.508;7.966;2023-03-26T02:44:18;25.00;;;5.07;;
6105;SDS011;3083;51.508;7.966;2023-03-26T02:46:46;22.77;;;5.20;;
6105;SDS011;3083;51.508;7.966;2023-03-26T02:49:13;31.93;;;5.07;;
6105;SDS011;3083;51.508;7.966;2023-03-26T02:51:40;24.57;;;5.00;;
6105;SDS011;3083;51.508;7.966;2023-03-26T02:54:07;21.03;;;4.43;;
6105;SDS011;3083;51.508;7.966;2023-03-26T02:56:35;28.47;;;5.70;;
6105;SDS011;3083;51.508;7.966;2023-03-26T02:59:02;16.90;;;4.50;;
6105;SDS011;3083;51.508;7.966;2023-03-26T03:01:29;21.27;;;4.80;;
6105;SDS011;3083;51.508;7.966;2023-03-26T03:04:00;13.70;;;4.13;;
6105;SDS011;3083;51.508;7.966;2023-03-26T03:06:28;16.53;;;4.17;;
6105;SDS011;3083;51.508;7.966;2023-03-26T03:08:56;27.10;;;4.80;;
6105;SDS011;3083;51.508;7.966;2023-03-26T03:11:23;23.13;;;4.33;;
6105;SDS011;3083;51.508;7.966;2023-03-26T03:13:50;20.83;;;4.20;;
6105;SDS011;3083;51.508;7.966;2023-03-26T03:16:17;19.17;;;5.20;;
6105;SDS011;3083;51.508;7.966;2023-03-26T03:18:45;20.43;;;4.57;;
6105;SDS011;3083;51.508;7.966;2023-03-26T03:21:19;15.30;;;3.63;;
6105;SDS011;3083;51.508;7.966;2023-03-26T03:23:46;13.53;;;4.33;;
6105;SDS011;3083;51.508;7.966;2023-03-26T03:26:14;19.63;;;5.30;;
6105;SDS011;3083;51.508;7.966;2023-03-26T03:28:45;19.67;;;4.00;;
6105;SDS011;3083;51.508;7.966;2023-03-26T03:31:12;14.73;;;4.17;;
6105;SDS011;3083;51.508;7.966;2023-03-26T03:33:39;21.20;;;5.37;;
6105;SDS011;3083;51.508;7.966;2023-03-26T03:36:07;24.63;;;4.87;;
6105;SDS011;3083;51.508;7.966;2023-03-26T03:38:37;20.73;;;4.30;;
6105;SDS011;3083;51.508;7.966;2023-03-26T03:41:05;13.67;;;4.13;;
6105;SDS011;3083;51.508;7.966;2023-03-26T03:43:33;12.30;;;3.60;;
6105;SDS011;3083;51.508;7.966;2023-03-26T03:46:00;22.30;;;4.43;;
6105;SDS011;3083;51.508;7.966;2023-03-26T03:48:27;23.40;;;4.67;;
6105;SDS011;3083;51.508;7.966;2023-03-26T03:50:54;18.30;;;3.87;;
6105;SDS011;3083;51.508;7.966;2023-03-26T03:53:22;22.43;;;5.37;;
6105;SDS011;3083;51.508;7.966;2023-03-26T03:55:52;21.60;;;4.70;;
6105;SDS011;3083;51.508;7.966;2023-03-26T03:58:20;13.50;;;4.50;;
6105;SDS011;3083;51.508;7.966;2023-03-26T04:00:47;13.53;;;4.27;;
6105;SDS011;3083;51.508;7.966;2023-03-26T04:03:15;24.37;;;4.70;;
6105;SDS011;3083;51.508;7.966;2023-03-26T04:05:41;16.40;;;4.03;;
6105;SDS011;3083;51.508;7.966;2023-03-26T04:08:13;17.47;;;4.90;;
6105;SDS011;3083;51.508;7.966;2023-03-26T04:10:40;20.43;;;4.13;;
6105;SDS011;3083;51.508;7.966;2023-03-26T04:13:09;14.33;;;4.00;;
6105;SDS011;3083;51.508;7.966;2023-03-26T04:15:37;18.90;;;3.83;;
6105;SDS011;3083;51.508;7.966;2023-03-26T04:18:04;16.50;;;3.40;;
6105;SDS011;3083;51.508;7.966;2023-03-26T04:20:34;17.33;;;3.50;;
6105;SDS011;3083;51.508;7.966;2023-03-26T04:23:02;14.33;;;4.43;;
6105;SDS011;3083;51.508;7.966;2023-03-26T04:25:29;25.27;;;3.83;;
6105;SDS011;3083;51.508;7.966;2023-03-26T04:27:58;16.50;;;4.37;;
6105;SDS011;3083;51.508;7.966;2023-03-26T04:30:32;17.53;;;3.90;;
6105;SDS011;3083;51.508;7.966;2023-03-26T04:32:59;15.30;;;3.00;;
6105;SDS011;3083;51.508;7.966;2023-03-26T04:35:28;15.57;;;3.80;;
6105;SDS011;3083;51.508;7.966;2023-03-26T04:37:59;18.77;;;3.60;;
6105;SDS011;3083;51.508;7.966;2023-03-26T04:40:30;14.47;;;4.40;;
6105;SDS011;3083;51.508;7.966;2023-03-26T04:42:58;14.30;;;4.90;;
6105;SDS011;3083;51.508;7.966;2023-03-26T04:45:26;22.47;;;7.03;;
6105;SDS011;3083;51.508;7.966;2023-03-26T04:47:56;12.93;;;5.13;;
6105;SDS011;3083;51.508;7.966;2023-03-26T04:50:23;15.40;;;5.00;;
6105;SDS011;3083;51.508;7.966;2023-03-26T04:52:51;11.90;;;3.73;;
6105;SDS011;3083;51.508;7.966;2023-03-26T04:55:22;20.43;;;4.13;;
6105;SDS011;3083;51.508;7.966;2023-03-26T04:57:52;17.63;;;4.37;;
6105;SDS011;3083;51.508;7.966;2023-03-26T05:00:21;15.60;;;4.43;;
6105;SDS011;3083;51.508;7.966;2023-03-26T05:02:49;16.43;;;4.17;;
6105;SDS011;3083;51.508;7.966;2023-03-26T05:05:21;20.93;;;5.17;;
6105;SDS011;3083;51.508;7.966;2023-03-26T05:07:48;15.53;;;4.87;;
6105;SDS011;3083;51.508;7.966;2023-03-26T05:10:15;26.53;;;6.43;;
6105;SDS011;3083;51.508;7.966;2023-03-26T05:12:44;21.20;;;6.20;;
6105;SDS011;3083;51.508;7.966;2023-03-26T05:15:11;24.57;;;6.50;;
6105;SDS011;3083;51.508;7.966;2023-03-26T05:17:39;20.93;;;5.10;;
6105;SDS011;3083;51.508;7.966;2023-03-26T05:20:09;32.20;;;5.17;;
6105;SDS011;3083;51.508;7.966;2023-03-26T05:22:43;14.57;;;4.63;;
6105;SDS011;3083;51.508;7.966;2023-03-26T05:25:10;9.70;;;3.60;;
6105;SDS011;3083;51.508;7.966;2023-03-26T05:27:37;6.97;;;3.23;;
6105;SDS011;3083;51.508;7.966;2023-03-26T05:30:05;23.77;;;4.20;;
6105;SDS011;3083;51.508;7.966;2023-03-26T05:32:33;28.87;;;5.43;;
6105;SDS011;3083;51.508;7.966;2023-03-26T05:35:02;21.87;;;3.50;;
6105;SDS011;3083;51.508;7.966;2023-03-26T05:37:29;18.60;;;3.83;;
6105;SDS011;3083;51.508;7.966;2023-03-26T05:39:58;28.50;;;4.60;;
6105;SDS011;3083;51.508;7.966;2023-03-26T05:42:26;15.50;;;4.20;;
6105;SDS011;3083;51.508;7.966;2023-03-26T05:44:53;16.00;;;4.27;;
6105;SDS011;3083;51.508;7.966;2023-03-26T05:47:19;22.63;;;3.80;;
6105;SDS011;3083;51.508;7.966;2023-03-26T05:49:46;12.63;;;3.60;;
6105;SDS011;3083;51.508;7.966;2023-03-26T05:52:13;20.17;;;4.00;;
6105;SDS011;3083;51.508;7.966;2023-03-26T05:54:43;13.03;;;4.10;;
6105;SDS011;3083;51.508;7.966;2023-03-26T05:57:11;18.57;;;4.10;;
6105;SDS011;3083;51.508;7.966;2023-03-26T05:59:38;10.23;;;3.47;;
6105;SDS011;3083;51.508;7.966;2023-03-26T06:02:05;16.70;;;3.33;;
6105;SDS011;3083;51.508;7.966;2023-03-26T06:04:34;23.80;;;3.87;;
6105;SDS011;3083;51.508;7.966;2023-03-26T06:07:04;20.80;;;4.70;;
6105;SDS011;3083;51.508;7.966;2023-03-26T06:09:34;14.87;;;6.23;;
6105;SDS011;3083;51.508;7.966;2023-03-26T06:12:02;24.27;;;6.57;;
6105;SDS011;3083;51.508;7.966;2023-03-26T06:14:31;15.70;;;5.33;;
6105;SDS011;3083;51.508;7.966;2023-03-26T06:16:59;24.73;;;5.37;;
6105;SDS011;3083;51.508;7.966;2023-03-26T06:19:26;18.63;;;3.83;;
6105;SDS011;3083;51.508;7.966;2023-03-26T06:21:53;22.37;;;3.90;;
6105;SDS011;3083;51.508;7.966;2023-03-26T06:24:20;17.70;;;4.70;;
6105;SDS011;3083;51.508;7.966;2023-03-26T06:26:47;16.53;;;5.13;;
6105;SDS011;3083;51.508;7.966;2023-03-26T06:29:14;15.57;;;4.13;;
6105;SDS011;3083;51.508;7.966;2023-03-26T06:31:42;20.00;;;4.43;;
6105;SDS011;3083;51.508;7.966;2023-03-26T06:34:09;15.50;;;3.50;;
6105;SDS011;3083;51.508;7.966;2023-03-26T06:36:36;17.43;;;4.17;;
6105;SDS011;3083;51.508;7.966;2023-03-26T06:39:03;12.23;;;3.33;;
6105;SDS011;3083;51.508;7.966;2023-03-26T06:41:31;12.97;;;3.50;;
6105;SDS011;3083;51.508;7.966;2023-03-26T06:43:59;18.70;;;3.80;;
6105;SDS011;3083;51.508;7.966;2023-03-26T06:46:26;16.97;;;3.30;;
6105;SDS011;3083;51.508;7.966;2023-03-26T06:48:55;13.63;;;3.50;;
6105;SDS011;3083;51.508;7.966;2023-03-26T06:51:21;22.57;;;3.63;;
6105;SDS011;3083;51.508;7.966;2023-03-26T06:53:48;19.20;;;3.63;;
6105;SDS011;3083;51.508;7.966;2023-03-26T06:56:15;13.10;;;3.60;;
6105;SDS011;3083;51.508;7.966;2023-03-26T06:58:42;11.50;;;3.57;;
6105;SDS011;3083;51.508;7.966;2023-03-26T07:01:11;10.27;;;2.90;;
6105;SDS011;3083;51.508;7.966;2023-03-26T07:03:38;6.63;;;3.53;;
6105;SDS011;3083;51.508;7.966;2023-03-26T07:06:07;12.90;;;3.60;;
6105;SDS011;3083;51.508;7.966;2023-03-26T07:08:34;23.93;;;3.83;;
6105;SDS011;3083;51.508;7.966;2023-03-26T07:11:01;14.37;;;3.50;;
6105;SDS011;3083;51.508;7.966;2023-03-26T07:13:28;9.90;;;3.03;;
6105;SDS011;3083;51.508;7.966;2023-03-26T07:15:55;13.33;;;3.57;;
6105;SDS011;3083;51.508;7.966;2023-03-26T07:18:22;17.23;;;2.70;;
6105;SDS011;3083;51.508;7.966;2023-03-26T07:20:49;18.50;;;4.40;;
6105;SDS011;3083;51.508;7.966;2023-03-26T07:23:19;14.10;;;3.40;;
6105;SDS011;3083;51.508;7.966;2023-03-26T07:25:46;14.17;;;3.30;;
6105;SDS011;3083;51.508;7.966;2023-03-26T07:28:16;11.27;;;2.97;;
6105;SDS011;3083;51.508;7.966;2023-03-26T07:30:52;18.13;;;3.77;;
6105;SDS011;3083;51.508;7.966;2023-03-26T07:33:27;15.03;;;4.10;;
6105;SDS011;3083;51.508;7.966;2023-03-26T07:36:02;15.50;;;3.73;;
6105;SDS011;3083;51.508;7.966;2023-03-26T07:38:43;13.83;;;2.93;;
6105;SDS011;3083;51.508;7.966;2023-03-26T07:41:19;15.37;;;3.87;;
6105;SDS011;3083;51.508;7.966;2023-03-26T07:43:58;13.33;;;3.63;;
6105;SDS011;3083;51.508;7.966;2023-03-26T07:46:35;15.13;;;3.10;;
6105;SDS011;3083;51.508;7.966;2023-03-26T07:49:03;14.70;;;3.80;;
6105;SDS011;3083;51.508;7.966;2023-03-26T07:51:31;15.23;;;3.80;;
6105;SDS011;3083;51.508;7.966;2023-03-26T07:54:00;9.50;;;3.23;;
6105;SDS011;3083;51.508;7.966;2023-03-26T07:56:30;14.37;;;3.50;;
6105;SDS011;3083;51.508;7.966;2023-03-26T07:59:05;17.47;;;3.63;;
6105;SDS011;3083;51.508;7.966;2023-03-26T08:01:49;14.30;;;3.60;;
6105;SDS011;3083;51.508;7.966;2023-03-26T08:04:30;8.73;;;3.47;;
6105;SDS011;3083;51.508;7.966;2023-03-26T08:07:07;10.53;;;2.83;;
6105;SDS011;3083;51.508;7.966;2023-03-26T08:09:45;9.80;;;3.30;;
6105;SDS011;3083;51.508;7.966;2023-03-26T08:12:25;13.50;;;3.70;;
6105;SDS011;3083;51.508;7.966;2023-03-26T08:15:04;11.13;;;3.23;;
6105;SDS011;3083;51.508;7.966;2023-03-26T08:17:38;7.47;;;3.33;;
6105;SDS011;3083;51.508;7.966;2023-03-26T08:20:12;7.57;;;3.00;;
6105;SDS011;3083;51.508;7.966;2023-03-26T08:22:53;10.53;;;2.73;;
6105;SDS011;3083;51.508;7.966;2023-03-26T08:25:28;8.20;;;2.50;;
6105;SDS011;3083;51.508;7.966;2023-03-26T08:28:09;9.83;;;3.10;;
6105;SDS011;3083;51.508;7.966;2023-03-26T08:30:47;6.90;;;2.00;;
6105;SDS011;3083;51.508;7.966;2023-03-26T08:33:15;7.13;;;2.50;;
6105;SDS011;3083;51.508;7.966;2023-03-26T08:35:44;8.87;;;2.50;;
6105;SDS011;3083;51.508;7.966;2023-03-26T08:38:13;8.80;;;3.10;;
6105;SDS011;3083;51.508;7.966;2023-03-26T08:40:57;13.90;;;4.00;;
6105;SDS011;3083;51.508;7.966;2023-03-26T08:43:49;11.23;;;3.17;;
6105;SDS011;3083;51.508;7.966;2023-03-26T08:46:46;11.07;;;3.20;;
6105;SDS011;3083;51.508;7.966;2023-03-26T08:52:46;9.80;;;3.30;;
6105;SDS011;3083;51.508;7.966;2023-03-26T08:55:47;9.60;;;3.67;;
6105;SDS011;3083;51.508;7.966;2023-03-26T08:58:27;14.50;;;3.40;;
6105;SDS011;3083;51.508;7.966;2023-03-26T09:01:15;12.33;;;3.67;;
6105;SDS011;3083;51.508;7.966;2023-03-26T09:04:07;8.17;;;3.40;;
6105;SDS011;3083;51.508;7.966;2023-03-26T09:16:26;12.40;;;3.70;;
6105;SDS011;3083;51.508;7.966;2023-03-26T09:19:24;9.17;;;4.00;;
6105;SDS011;3083;51.508;7.966;2023-03-26T09:22:36;13.50;;;3.70;;
6105;SDS011;3083;51.508;7.966;2023-03-26T09:31:58;6.30;;;2.80;;
6105;SDS011;3083;51.508;7.966;2023-03-26T09:34:45;15.03;;;3.40;;
6105;SDS011;3083;51.508;7.966;2023-03-26T09:37:51;12.67;;;3.20;;
6105;SDS011;3083;51.508;7.966;2023-03-26T09:40:27;14.90;;;5.33;;
6105;SDS011;3083;51.508;7.966;2023-03-26T09:43:09;17.23;;;6.73;;
6105;SDS011;3083;51.508;7.966;2023-03-26T09:45:59;16.33;;;6.33;;
6105;SDS011;3083;51.508;7.966;2023-03-26T09:48:48;10.70;;;4.07;;
6105;SDS011;3083;51.508;7.966;2023-03-26T09:57:12;12.23;;;2.70;;
6105;SDS011;3083;51.508;7.966;2023-03-26T09:59:55;12.87;;;3.30;;
6105;SDS011;3083;51.508;7.966;2023-03-26T10:02:43;7.53;;;2.73;;
6105;SDS011;3083;51.508;7.966;2023-03-26T10:05:31;9.77;;;3.67;;
6105;SDS011;3083;51.508;7.966;2023-03-26T10:08:24;18.97;;;4.77;;
6105;SDS011;3083;51.508;7.966;2023-03-26T10:11:12;12.37;;;3.83;;
6105;SDS011;3083;51.508;7.966;2023-03-26T10:13:58;13.13;;;2.80;;
6105;SDS011;3083;51.508;7.966;2023-03-26T10:16:31;6.80;;;3.63;;
6105;SDS011;3083;51.508;7.966;2023-03-26T10:19:14;7.77;;;3.60;;
6105;SDS011;3083;51.508;7.966;2023-03-26T10:22:00;11.80;;;3.67;;
6105;SDS011;3083;51.508;7.966;2023-03-26T10:24:46;9.97;;;3.13;;
6105;SDS011;3083;51.508;7.966;2023-03-26T10:27:33;9.53;;;2.90;;
6105;SDS011;3083;51.508;7.966;2023-03-26T10:30:24;12.33;;;4.00;;
6105;SDS011;3083;51.508;7.966;2023-03-26T10:33:04;15.07;;;3.00;;
6105;SDS011;3083;51.508;7.966;2023-03-26T10:35:44;8.20;;;3.30;;
6105;SDS011;3083;51.508;7.966;2023-03-26T10:38:22;5.30;;;2.60;;
6105;SDS011;3083;51.508;7.966;2023-03-26T10:40:57;10.83;;;3.23;;
6105;SDS011;3083;51.508;7.966;2023-03-26T10:43:39;6.73;;;3.13;;
6105;SDS011;3083;51.508;7.966;2023-03-26T10:46:23;9.87;;;2.70;;
6105;SDS011;3083;51.508;7.966;2023-03-26T10:52:06;9.80;;;3.00;;
6105;SDS011;3083;51.508;7.966;2023-03-26T10:54:39;7.93;;;2.83;;
6105;SDS011;3083;51.508;7.966;2023-03-26T10:57:16;11.23;;;2.30;;
6105;SDS011;3083;51.508;7.966;2023-03-26T10:59:50;8.40;;;3.07;;
6105;SDS011;3083;51.508;7.966;2023-03-26T11:02:25;12.43;;;2.83;;
6105;SDS011;3083;51.508;7.966;2023-03-26T11:04:55;7.90;;;2.97;;
6105;SDS011;3083;51.508;7.966;2023-03-26T11:07:43;8.23;;;2.93;;
6105;SDS011;3083;51.508;7.966;2023-03-26T11:10:19;9.97;;;2.43;;
6105;SDS011;3083;51.508;7.966;2023-03-26T11:12:51;6.00;;;2.30;;
6105;SDS011;3083;51.508;7.966;2023-03-26T11:15:27;6.40;;;2.37;;
6105;SDS011;3083;51.508;7.966;2023-03-26T11:18:02;4.53;;;1.70;;
6105;SDS011;3083;51.508;7.966;2023-03-26T11:20:35;9.10;;;1.90;;
6105;SDS011;3083;51.508;7.966;2023-03-26T11:23:16;4.93;;;1.90;;
6105;SDS011;3083;51.508;7.966;2023-03-26T11:25:58;8.60;;;2.43;;
6105;SDS011;3083;51.508;7.966;2023-03-26T11:28:50;9.37;;;2.67;;
6105;SDS011;3083;51.508;7.966;2023-03-26T11:31:28;6.10;;;2.23;;
6105;SDS011;3083;51.508;7.966;2023-03-26T11:34:08;7.70;;;2.40;;
6105;SDS011;3083;51.508;7.966;2023-03-26T11:36:40;7.73;;;2.50;;
6105;SDS011;3083;51.508;7.966;2023-03-26T11:39:11;8.53;;;2.53;;
6105;SDS011;3083;51.508;7.966;2023-03-26T11:41:45;8.33;;;2.27;;
6105;SDS011;3083;51.508;7.966;2023-03-26T11:44:17;5.97;;;2.30;;
6105;SDS011;3083;51.508;7.966;2023-03-26T11:46:47;7.70;;;2.33;;
6105;SDS011;3083;51.508;7.966;2023-03-26T11:49:18;2.90;;;1.70;;
6105;SDS011;3083;51.508;7.966;2023-03-26T11:51:47;8.27;;;1.83;;
6105;SDS011;3083;51.508;7.966;2023-03-26T11:54:14;7.80;;;2.10;;
6105;SDS011;3083;51.508;7.966;2023-03-26T11:56:42;6.57;;;1.80;;
6105;SDS011;3083;51.508;7.966;2023-03-26T11:59:14;10.70;;;3.90;;
6105;SDS011;3083;51.508;7.966;2023-03-26T12:01:47;19.10;;;8.90;;
6105;SDS011;3083;51.508;7.966;2023-03-26T12:04:16;8.17;;;3.63;;
6105;SDS011;3083;51.508;7.966;2023-03-26T12:06:51;6.03;;;3.20;;
6105;SDS011;3083;51.508;7.966;2023-03-26T12:09:20;14.90;;;6.27;;
6105;SDS011;3083;51.508;7.966;2023-03-26T12:11:51;7.63;;;3.93;;
6105;SDS011;3083;51.508;7.966;2023-03-26T12:14:21;5.80;;;3.60;;
6105;SDS011;3083;51.508;7.966;2023-03-26T12:17:00;5.07;;;2.37;;
6105;SDS011;3083;51.508;7.966;2023-03-26T12:19:33;8.97;;;5.60;;
6105;SDS011;3083;51.508;7.966;2023-03-26T12:22:03;9.30;;;4.70;;
6105;SDS011;3083;51.508;7.966;2023-03-26T12:24:31;48.87;;;21.23;;
6105;SDS011;3083;51.508;7.966;2023-03-26T12:27:05;20.67;;;8.83;;
6105;SDS011;3083;51.508;7.966;2023-03-26T12:29:49;41.57;;;22.37;;
6105;SDS011;3083;51.508;7.966;2023-03-26T12:32:16;32.37;;;20.23;;
6105;SDS011;3083;51.508;7.966;2023-03-26T12:34:43;11.67;;;7.17;;
6105;SDS011;3083;51.508;7.966;2023-03-26T12:40:25;28.23;;;14.57;;
6105;SDS011;3083;51.508;7.966;2023-03-26T12:42:55;16.80;;;9.93;;
6105;SDS011;3083;51.508;7.966;2023-03-26T12:45:27;6.43;;;3.73;;
6105;SDS011;3083;51.508;7.966;2023-03-26T12:47:55;6.27;;;3.37;;
6105;SDS011;3083;51.508;7.966;2023-03-26T12:50:25;5.97;;;3.30;;
6105;SDS011;3083;51.508;7.966;2023-03-26T12:53:04;4.50;;;2.30;;
6105;SDS011;3083;51.508;7.966;2023-03-26T12:55:46;3.53;;;0.90;;
6105;SDS011;3083;51.508;7.966;2023-03-26T12:58:27;2.30;;;0.87;;
6105;SDS011;3083;51.508;7.966;2023-03-26T13:01:06;3.90;;;1.80;;
6105;SDS011;3083;51.508;7.966;2023-03-26T13:03:42;5.20;;;2.93;;
6105;SDS011;3083;51.508;7.966;2023-03-26T13:06:27;3.87;;;1.40;;
6105;SDS011;3083;51.508;7.966;2023-03-26T13:09:03;6.60;;;2.47;;
6105;SDS011;3083;51.508;7.966;2023-03-26T13:12:00;2.70;;;1.10;;
6105;SDS011;3083;51.508;7.966;2023-03-26T13:14:54;2.40;;;0.80;;
6105;SDS011;3083;51.508;7.966;2023-03-26T13:17:36;2.40;;;0.97;;
6105;SDS011;3083;51.508;7.966;2023-03-26T13:20:09;2.50;;;1.03;;
6105;SDS011;3083;51.508;7.966;2023-03-26T13:22:47;2.53;;;0.90;;
6105;SDS011;3083;51.508;7.966;2023-03-26T13:25:25;3.17;;;1.00;;
6105;SDS011;3083;51.508;7.966;2023-03-26T13:28:02;2.47;;;0.87;;
6105;SDS011;3083;51.508;7.966;2023-03-26T13:30:42;2.70;;;0.97;;
6105;SDS011;3083;51.508;7.966;2023-03-26T13:33:20;3.00;;;1.50;;
6105;SDS011;3083;51.508;7.966;2023-03-26T13:35:58;3.60;;;1.03;;
6105;SDS011;3083;51.508;7.966;2023-03-26T13:38:32;2.60;;;1.00;;
6105;SDS011;3083;51.508;7.966;2023-03-26T13:41:08;2.37;;;0.73;;
6105;SDS011;3083;51.508;7.966;2023-03-26T13:43:45;2.43;;;0.70;;
6105;SDS011;3083;51.508;7.966;2023-03-26T13:46:25;2.00;;;0.70;;
6105;SDS011;3083;51.508;7.966;2023-03-26T13:48:58;2.20;;;0.73;;
6105;SDS011;3083;51.508;7.966;2023-03-26T13:51:29;2.30;;;1.00;;
6105;SDS011;3083;51.508;7.966;2023-03-26T13:54:04;1.97;;;0.60;;
6105;SDS011;3083;51.508;7.966;2023-03-26T13:56:40;3.10;;;1.00;;
6105;SDS011;3083;51.508;7.966;2023-03-26T13:59:11;2.90;;;0.90;;
6105;SDS011;3083;51.508;7.966;2023-03-26T14:01:45;3.60;;;1.00;;
6105;SDS011;3083;51.508;7.966;2023-03-26T14:04:17;2.90;;;1.20;;
6105;SDS011;3083;51.508;7.966;2023-03-26T14:06:49;3.00;;;1.20;;
6105;SDS011;3083;51.508;7.966;2023-03-26T14:09:24;3.30;;;1.30;;
6105;SDS011;3083;51.508;7.966;2023-03-26T14:14:50;2.17;;;0.80;;
6105;SDS011;3083;51.508;7.966;2023-03-26T14:17:23;2.10;;;0.73;;
6105;SDS011;3083;51.508;7.966;2023-03-26T14:20:07;2.10;;;0.70;;
6105;SDS011;3083;51.508;7.966;2023-03-26T14:22:55;2.20;;;0.80;;
6105;SDS011;3083;51.508;7.966;2023-03-26T14:25:45;2.10;;;0.70;;
6105;SDS011;3083;51.508;7.966;2023-03-26T14:28:27;2.70;;;1.10;;
6105;SDS011;3083;51.508;7.966;2023-03-26T14:31:10;3.37;;;1.17;;
6105;SDS011;3083;51.508;7.966;2023-03-26T14:36:52;2.60;;;1.00;;
6105;SDS011;3083;51.508;7.966;2023-03-26T14:42:32;2.90;;;1.20;;
6105;SDS011;3083;51.508;7.966;2023-03-26T14:48:15;3.40;;;1.20;;
6105;SDS011;3083;51.508;7.966;2023-03-26T14:51:04;3.33;;;1.20;;
6105;SDS011;3083;51.508;7.966;2023-03-26T14:53:37;3.20;;;1.20;;
6105;SDS011;3083;51.508;7.966;2023-03-26T14:56:28;3.47;;;1.50;;
6105;SDS011;3083;51.508;7.966;2023-03-26T15:02:53;3.07;;;1.27;;
6105;SDS011;3083;51.508;7.966;2023-03-26T15:08:49;2.73;;;1.30;;
6105;SDS011;3083;51.508;7.966;2023-03-26T15:11:56;3.60;;;1.10;;
6105;SDS011;3083;51.508;7.966;2023-03-26T15:14:36;7.43;;;1.70;;
6105;SDS011;3083;51.508;7.966;2023-03-26T15:20:23;5.70;;;1.40;;
6105;SDS011;3083;51.508;7.966;2023-03-26T15:32:35;3.90;;;1.20;;
6105;SDS011;3083;51.508;7.966;2023-03-26T15:38:36;2.60;;;1.20;;
6105;SDS011;3083;51.508;7.966;2023-03-26T15:41:22;5.03;;;1.33;;
6105;SDS011;3083;51.508;7.966;2023-03-26T15:44:05;3.37;;;1.50;;
6105;SDS011;3083;51.508;7.966;2023-03-26T15:46:56;4.40;;;1.80;;
6105;SDS011;3083;51.508;7.966;2023-03-26T15:49:27;3.97;;;1.90;;
6105;SDS011;3083;51.508;7.966;2023-03-26T15:52:07;4.23;;;2.00;;
6105;SDS011;3083;51.508;7.966;2023-03-26T15:54:45;10.13;;;2.50;;
6105;SDS011;3083;51.508;7.966;2023-03-26T15:57:18;5.70;;;2.57;;
6105;SDS011;3083;51.508;7.966;2023-03-26T15:59:55;4.80;;;2.17;;
6105;SDS011;3083;51.508;7.966;2023-03-26T16:02:39;5.87;;;2.40;;
6105;SDS011;3083;51.508;7.966;2023-03-26T16:05:29;5.30;;;2.27;;
6105;SDS011;3083;51.508;7.966;2023-03-26T16:08:06;8.23;;;2.63;;
6105;SDS011;3083;51.508;7.966;2023-03-26T16:10:44;8.53;;;2.80;;
6105;SDS011;3083;51.508;7.966;2023-03-26T16:13:26;5.00;;;2.30;;
6105;SDS011;3083;51.508;7.966;2023-03-26T16:16:13;5.13;;;2.27;;
6105;SDS011;3083;51.508;7.966;2023-03-26T16:18:45;5.20;;;2.63;;
6105;SDS011;3083;51.508;7.966;2023-03-26T16:21:33;7.20;;;2.63;;
6105;SDS011;3083;51.508;7.966;2023-03-26T16:24:16;6.90;;;2.70;;
6105;SDS011;3083;51.508;7.966;2023-03-26T16:26:52;7.80;;;2.60;;
6105;SDS011;3083;51.508;7.966;2023-03-26T16:29:26;4.60;;;2.27;;
6105;SDS011;3083;51.508;7.966;2023-03-26T16:32:09;5.27;;;2.40;;
6105;SDS011;3083;51.508;7.966;2023-03-26T16:34:41;8.00;;;3.47;;
6105;SDS011;3083;51.508;7.966;2023-03-26T16:37:35;6.10;;;2.97;;
6105;SDS011;3083;51.508;7.966;2023-03-26T16:40:27;12.30;;;3.70;;
6105;SDS011;3083;51.508;7.966;2023-03-26T16:46:01;9.13;;;3.93;;
6105;SDS011;3083;51.508;7.966;2023-03-26T16:48:35;9.53;;;3.90;;
6105;SDS011;3083;51.508;7.966;2023-03-26T16:51:07;14.53;;;4.60;;
6105;SDS011;3083;51.508;7.966;2023-03-26T16:53:44;17.63;;;4.90;;
6105;SDS011;3083;51.508;7.966;2023-03-26T16:56:23;16.70;;;4.70;;
6105;SDS011;3083;51.508;7.966;2023-03-26T16:58:58;13.07;;;5.00;;